Terminal Aerodrome Forecast
Issued by NWS Upton, NY

Home | Current Version | Previous Version | Text Only | Print | Product List | Glossary On
Versions: 1 2 3 4 5 6 7 8 9 10 11 12 13 14 15 16 17 18 19 20 21 22 23 24 25 26 27
000
FTUS41 KOKX 301400 AAA
TAFEWR
TAF AMD
KEWR 301426Z 3014/3118 33010KT P6SM SCT040
     FM301900 31009KT P6SM BKN040
     FM310000 33006KT P6SM SCT040
     FM310900 01006KT P6SM BKN035
     FM311500 04006KT P6SM BKN035=

USA.gov is the U.S. government's official web portal to all federal, state and local government web resources and services.